sensor_id;sensor_type;location;lat;lon;timestamp;P1;durP1;ratioP1;P2;durP2;ratioP2
75234;SDS011;63817;51.228;-1.472;2023-03-01T00:01:07;3.60;;;2.60;;
75234;SDS011;63817;51.228;-1.472;2023-03-01T00:03:36;4.35;;;2.97;;
75234;SDS011;63817;51.228;-1.472;2023-03-01T00:06:02;4.07;;;3.28;;
75234;SDS011;63817;51.228;-1.472;2023-03-01T00:08:28;3.70;;;3.17;;
75234;SDS011;63817;51.228;-1.472;2023-03-01T00:11:02;3.28;;;2.53;;
75234;SDS011;63817;51.228;-1.472;2023-03-01T00:13:29;3.35;;;2.53;;
75234;SDS011;63817;51.228;-1.472;2023-03-01T00:15:54;3.50;;;3.00;;
75234;SDS011;63817;51.228;-1.472;2023-03-01T00:18:20;4.88;;;3.03;;
75234;SDS011;63817;51.228;-1.472;2023-03-01T00:20:52;4.47;;;3.00;;
75234;SDS011;63817;51.228;-1.472;2023-03-01T00:23:18;4.82;;;3.17;;
75234;SDS011;63817;51.228;-1.472;2023-03-01T00:25:44;5.13;;;3.10;;
75234;SDS011;63817;51.228;-1.472;2023-03-01T00:28:09;5.65;;;3.50;;
75234;SDS011;63817;51.228;-1.472;2023-03-01T00:30:34;6.20;;;3.88;;
75234;SDS011;63817;51.228;-1.472;2023-03-01T00:33:00;5.13;;;3.65;;
75234;SDS011;63817;51.228;-1.472;2023-03-01T00:35:25;5.97;;;4.05;;
75234;SDS011;63817;51.228;-1.472;2023-03-01T00:37:51;4.72;;;3.50;;
75234;SDS011;63817;51.228;-1.472;2023-03-01T00:40:28;6.90;;;3.70;;
75234;SDS011;63817;51.228;-1.472;2023-03-01T00:42:55;7.67;;;3.70;;
75234;SDS011;63817;51.228;-1.472;2023-03-01T00:45:21;7.32;;;4.07;;
75234;SDS011;63817;51.228;-1.472;2023-03-01T00:47:47;4.28;;;3.47;;
75234;SDS011;63817;51.228;-1.472;2023-03-01T00:50:13;4.78;;;3.88;;
75234;SDS011;63817;51.228;-1.472;2023-03-01T00:52:39;4.97;;;3.40;;
75234;SDS011;63817;51.228;-1.472;2023-03-01T00:55:04;4.80;;;3.97;;
75234;SDS011;63817;51.228;-1.472;2023-03-01T00:57:30;6.57;;;3.80;;
75234;SDS011;63817;51.228;-1.472;2023-03-01T00:59:56;6.78;;;4.00;;
75234;SDS011;63817;51.228;-1.472;2023-03-01T01:02:21;5.90;;;3.70;;
75234;SDS011;63817;51.228;-1.472;2023-03-01T01:04:47;6.13;;;4.03;;
75234;SDS011;63817;51.228;-1.472;2023-03-01T01:07:13;7.70;;;3.95;;
75234;SDS011;63817;51.228;-1.472;2023-03-01T01:09:38;4.82;;;3.60;;
75234;SDS011;63817;51.228;-1.472;2023-03-01T01:12:03;6.05;;;4.22;;
75234;SDS011;63817;51.228;-1.472;2023-03-01T01:14:29;6.05;;;4.50;;
75234;SDS011;63817;51.228;-1.472;2023-03-01T01:16:54;6.97;;;4.40;;
75234;SDS011;63817;51.228;-1.472;2023-03-01T01:19:20;8.13;;;4.78;;
75234;SDS011;63817;51.228;-1.472;2023-03-01T01:21:46;6.40;;;4.82;;
75234;SDS011;63817;51.228;-1.472;2023-03-01T01:24:12;7.55;;;5.40;;
75234;SDS011;63817;51.228;-1.472;2023-03-01T01:26:38;6.57;;;5.13;;
75234;SDS011;63817;51.228;-1.472;2023-03-01T01:29:04;9.27;;;5.90;;
75234;SDS011;63817;51.228;-1.472;2023-03-01T01:31:30;9.20;;;6.18;;
75234;SDS011;63817;51.228;-1.472;2023-03-01T01:33:56;8.95;;;6.13;;
75234;SDS011;63817;51.228;-1.472;2023-03-01T01:36:22;9.45;;;6.05;;
75234;SDS011;63817;51.228;-1.472;2023-03-01T01:38:47;8.40;;;6.32;;
75234;SDS011;63817;51.228;-1.472;2023-03-01T01:41:13;8.30;;;6.07;;
75234;SDS011;63817;51.228;-1.472;2023-03-01T01:43:41;9.13;;;6.72;;
75234;SDS011;63817;51.228;-1.472;2023-03-01T01:49:05;10.25;;;5.93;;
75234;SDS011;63817;51.228;-1.472;2023-03-01T01:51:40;10.00;;;5.78;;
75234;SDS011;63817;51.228;-1.472;2023-03-01T01:54:08;11.02;;;5.90;;
75234;SDS011;63817;51.228;-1.472;2023-03-01T01:56:37;10.25;;;5.85;;
75234;SDS011;63817;51.228;-1.472;2023-03-01T01:59:03;12.25;;;5.80;;
75234;SDS011;63817;51.228;-1.472;2023-03-01T02:01:28;7.93;;;4.88;;
75234;SDS011;63817;51.228;-1.472;2023-03-01T02:03:54;9.55;;;5.50;;
75234;SDS011;63817;51.228;-1.472;2023-03-01T02:09:11;8.05;;;5.60;;
75234;SDS011;63817;51.228;-1.472;2023-03-01T02:11:38;7.53;;;4.90;;
75234;SDS011;63817;51.228;-1.472;2023-03-01T02:14:04;6.85;;;4.68;;
75234;SDS011;63817;51.228;-1.472;2023-03-01T02:16:30;7.63;;;5.30;;
75234;SDS011;63817;51.228;-1.472;2023-03-01T02:18:56;6.63;;;4.72;;
75234;SDS011;63817;51.228;-1.472;2023-03-01T02:24:09;7.30;;;4.30;;
75234;SDS011;63817;51.228;-1.472;2023-03-01T02:26:54;5.07;;;3.80;;
75234;SDS011;63817;51.228;-1.472;2023-03-01T02:29:21;5.97;;;4.03;;
75234;SDS011;63817;51.228;-1.472;2023-03-01T02:31:47;6.10;;;4.28;;
75234;SDS011;63817;51.228;-1.472;2023-03-01T02:34:16;7.35;;;4.53;;
75234;SDS011;63817;51.228;-1.472;2023-03-01T02:36:45;5.30;;;3.92;;
75234;SDS011;63817;51.228;-1.472;2023-03-01T02:39:20;5.50;;;4.47;;
75234;SDS011;63817;51.228;-1.472;2023-03-01T02:41:52;5.10;;;3.65;;
75234;SDS011;63817;51.228;-1.472;2023-03-01T02:44:19;6.13;;;3.80;;
75234;SDS011;63817;51.228;-1.472;2023-03-01T02:46:46;5.50;;;4.05;;
75234;SDS011;63817;51.228;-1.472;2023-03-01T02:49:32;7.07;;;3.83;;
75234;SDS011;63817;51.228;-1.472;2023-03-01T02:54:36;5.75;;;4.30;;
75234;SDS011;63817;51.228;-1.472;2023-03-01T02:57:05;6.05;;;3.88;;
75234;SDS011;63817;51.228;-1.472;2023-03-01T02:59:31;6.80;;;3.80;;
75234;SDS011;63817;51.228;-1.472;2023-03-01T03:02:04;6.10;;;3.90;;
75234;SDS011;63817;51.228;-1.472;2023-03-01T03:04:30;5.55;;;4.00;;
75234;SDS011;63817;51.228;-1.472;2023-03-01T03:06:55;4.70;;;3.60;;
75234;SDS011;63817;51.228;-1.472;2023-03-01T03:09:21;9.15;;;4.13;;
75234;SDS011;63817;51.228;-1.472;2023-03-01T03:11:46;4.90;;;3.70;;
75234;SDS011;63817;51.228;-1.472;2023-03-01T03:14:12;3.85;;;3.10;;
75234;SDS011;63817;51.228;-1.472;2023-03-01T03:16:42;6.15;;;4.25;;
75234;SDS011;63817;51.228;-1.472;2023-03-01T03:19:09;7.60;;;4.43;;
75234;SDS011;63817;51.228;-1.472;2023-03-01T03:21:35;4.85;;;3.60;;
75234;SDS011;63817;51.228;-1.472;2023-03-01T03:24:01;5.03;;;3.58;;
75234;SDS011;63817;51.228;-1.472;2023-03-01T03:26:26;4.10;;;3.50;;
75234;SDS011;63817;51.228;-1.472;2023-03-01T03:28:52;4.38;;;3.53;;
75234;SDS011;63817;51.228;-1.472;2023-03-01T03:31:17;5.60;;;3.80;;
75234;SDS011;63817;51.228;-1.472;2023-03-01T03:33:43;5.28;;;3.85;;
75234;SDS011;63817;51.228;-1.472;2023-03-01T03:36:08;6.70;;;3.88;;
75234;SDS011;63817;51.228;-1.472;2023-03-01T03:38:38;7.28;;;4.05;;
75234;SDS011;63817;51.228;-1.472;2023-03-01T03:41:05;7.05;;;4.50;;
75234;SDS011;63817;51.228;-1.472;2023-03-01T03:43:32;7.55;;;5.03;;
75234;SDS011;63817;51.228;-1.472;2023-03-01T03:45:58;8.65;;;5.07;;
75234;SDS011;63817;51.228;-1.472;2023-03-01T03:48:24;8.18;;;4.88;;
75234;SDS011;63817;51.228;-1.472;2023-03-01T03:50:51;5.95;;;4.68;;
75234;SDS011;63817;51.228;-1.472;2023-03-01T03:53:18;6.70;;;5.00;;
75234;SDS011;63817;51.228;-1.472;2023-03-01T03:55:44;7.50;;;5.32;;
75234;SDS011;63817;51.228;-1.472;2023-03-01T03:58:09;7.15;;;5.53;;
75234;SDS011;63817;51.228;-1.472;2023-03-01T04:00:37;9.98;;;5.80;;
75234;SDS011;63817;51.228;-1.472;2023-03-01T04:03:04;6.90;;;5.47;;
75234;SDS011;63817;51.228;-1.472;2023-03-01T04:05:30;8.40;;;5.68;;
75234;SDS011;63817;51.228;-1.472;2023-03-01T04:07:56;7.43;;;5.38;;
75234;SDS011;63817;51.228;-1.472;2023-03-01T04:10:28;9.18;;;5.47;;
75234;SDS011;63817;51.228;-1.472;2023-03-01T04:12:55;7.30;;;5.35;;
75234;SDS011;63817;51.228;-1.472;2023-03-01T04:15:22;8.73;;;6.25;;
75234;SDS011;63817;51.228;-1.472;2023-03-01T04:17:49;7.90;;;5.85;;
75234;SDS011;63817;51.228;-1.472;2023-03-01T04:20:17;7.93;;;5.85;;
75234;SDS011;63817;51.228;-1.472;2023-03-01T04:22:49;10.98;;;6.45;;
75234;SDS011;63817;51.228;-1.472;2023-03-01T04:25:22;8.38;;;5.40;;
75234;SDS011;63817;51.228;-1.472;2023-03-01T04:27:48;9.40;;;5.32;;
75234;SDS011;63817;51.228;-1.472;2023-03-01T04:30:13;11.32;;;6.05;;
75234;SDS011;63817;51.228;-1.472;2023-03-01T04:32:39;8.30;;;5.47;;
75234;SDS011;63817;51.228;-1.472;2023-03-01T04:35:05;6.57;;;5.00;;
75234;SDS011;63817;51.228;-1.472;2023-03-01T04:37:31;6.43;;;4.75;;
75234;SDS011;63817;51.228;-1.472;2023-03-01T04:39:56;5.65;;;3.97;;
75234;SDS011;63817;51.228;-1.472;2023-03-01T04:42:22;5.45;;;3.78;;
75234;SDS011;63817;51.228;-1.472;2023-03-01T04:44:48;5.10;;;3.55;;
75234;SDS011;63817;51.228;-1.472;2023-03-01T04:47:16;4.63;;;3.78;;
75234;SDS011;63817;51.228;-1.472;2023-03-01T04:49:42;4.90;;;3.38;;
75234;SDS011;63817;51.228;-1.472;2023-03-01T04:52:07;6.43;;;4.00;;
75234;SDS011;63817;51.228;-1.472;2023-03-01T04:54:33;6.03;;;3.65;;
75234;SDS011;63817;51.228;-1.472;2023-03-01T04:56:59;5.90;;;3.70;;
75234;SDS011;63817;51.228;-1.472;2023-03-01T04:59:25;5.57;;;3.17;;
75234;SDS011;63817;51.228;-1.472;2023-03-01T05:01:51;6.35;;;3.63;;
75234;SDS011;63817;51.228;-1.472;2023-03-01T05:04:17;4.63;;;3.28;;
75234;SDS011;63817;51.228;-1.472;2023-03-01T05:06:43;5.95;;;3.70;;
75234;SDS011;63817;51.228;-1.472;2023-03-01T05:09:08;4.53;;;3.38;;
75234;SDS011;63817;51.228;-1.472;2023-03-01T05:11:34;4.97;;;3.40;;
75234;SDS011;63817;51.228;-1.472;2023-03-01T05:14:07;4.60;;;3.72;;
75234;SDS011;63817;51.228;-1.472;2023-03-01T05:16:33;7.57;;;4.30;;
75234;SDS011;63817;51.228;-1.472;2023-03-01T05:19:01;6.53;;;3.97;;
75234;SDS011;63817;51.228;-1.472;2023-03-01T05:21:36;5.97;;;4.10;;
75234;SDS011;63817;51.228;-1.472;2023-03-01T05:24:23;7.70;;;4.03;;
75234;SDS011;63817;51.228;-1.472;2023-03-01T05:26:49;6.80;;;4.13;;
75234;SDS011;63817;51.228;-1.472;2023-03-01T05:29:16;8.18;;;4.20;;
75234;SDS011;63817;51.228;-1.472;2023-03-01T05:31:42;5.93;;;4.05;;
75234;SDS011;63817;51.228;-1.472;2023-03-01T05:34:08;7.28;;;4.10;;
75234;SDS011;63817;51.228;-1.472;2023-03-01T05:36:33;7.18;;;3.88;;
75234;SDS011;63817;51.228;-1.472;2023-03-01T05:38:59;7.75;;;4.00;;
75234;SDS011;63817;51.228;-1.472;2023-03-01T05:41:24;7.28;;;4.38;;
75234;SDS011;63817;51.228;-1.472;2023-03-01T05:43:50;8.90;;;4.43;;
75234;SDS011;63817;51.228;-1.472;2023-03-01T05:46:15;7.47;;;4.85;;
75234;SDS011;63817;51.228;-1.472;2023-03-01T05:48:41;7.57;;;3.67;;
75234;SDS011;63817;51.228;-1.472;2023-03-01T05:51:06;5.18;;;3.38;;
75234;SDS011;63817;51.228;-1.472;2023-03-01T05:53:31;6.97;;;3.78;;
75234;SDS011;63817;51.228;-1.472;2023-03-01T05:55:57;4.13;;;3.50;;
75234;SDS011;63817;51.228;-1.472;2023-03-01T05:58:23;7.43;;;4.00;;
75234;SDS011;63817;51.228;-1.472;2023-03-01T06:00:49;6.22;;;3.53;;
75234;SDS011;63817;51.228;-1.472;2023-03-01T06:03:15;7.30;;;3.70;;
75234;SDS011;63817;51.228;-1.472;2023-03-01T06:05:41;7.13;;;3.30;;
75234;SDS011;63817;51.228;-1.472;2023-03-01T06:08:08;7.45;;;4.20;;
75234;SDS011;63817;51.228;-1.472;2023-03-01T06:10:34;7.63;;;4.75;;
75234;SDS011;63817;51.228;-1.472;2023-03-01T06:13:00;6.72;;;4.57;;
75234;SDS011;63817;51.228;-1.472;2023-03-01T06:15:25;6.60;;;4.47;;
75234;SDS011;63817;51.228;-1.472;2023-03-01T06:17:51;8.85;;;4.60;;
75234;SDS011;63817;51.228;-1.472;2023-03-01T06:20:20;9.55;;;5.00;;
75234;SDS011;63817;51.228;-1.472;2023-03-01T06:22:47;6.72;;;4.35;;
75234;SDS011;63817;51.228;-1.472;2023-03-01T06:25:15;7.30;;;4.43;;
75234;SDS011;63817;51.228;-1.472;2023-03-01T06:27:42;9.77;;;4.88;;
75234;SDS011;63817;51.228;-1.472;2023-03-01T06:30:09;6.20;;;3.95;;
75234;SDS011;63817;51.228;-1.472;2023-03-01T06:32:36;7.07;;;4.43;;
75234;SDS011;63817;51.228;-1.472;2023-03-01T06:35:03;6.65;;;3.95;;
75234;SDS011;63817;51.228;-1.472;2023-03-01T06:37:29;8.85;;;4.10;;
75234;SDS011;63817;51.228;-1.472;2023-03-01T06:39:54;8.35;;;4.38;;
75234;SDS011;63817;51.228;-1.472;2023-03-01T06:42:19;8.05;;;3.53;;
75234;SDS011;63817;51.228;-1.472;2023-03-01T06:44:45;7.72;;;3.80;;
75234;SDS011;63817;51.228;-1.472;2023-03-01T06:47:11;8.07;;;4.20;;
75234;SDS011;63817;51.228;-1.472;2023-03-01T06:49:36;8.25;;;4.03;;
75234;SDS011;63817;51.228;-1.472;2023-03-01T06:52:02;5.07;;;3.28;;
75234;SDS011;63817;51.228;-1.472;2023-03-01T06:54:27;8.27;;;3.28;;
75234;SDS011;63817;51.228;-1.472;2023-03-01T06:56:52;4.80;;;3.28;;
75234;SDS011;63817;51.228;-1.472;2023-03-01T06:59:18;6.65;;;3.17;;
75234;SDS011;63817;51.228;-1.472;2023-03-01T07:01:44;7.43;;;3.35;;
75234;SDS011;63817;51.228;-1.472;2023-03-01T07:04:09;8.30;;;4.05;;
75234;SDS011;63817;51.228;-1.472;2023-03-01T07:06:35;7.32;;;3.38;;
75234;SDS011;63817;51.228;-1.472;2023-03-01T07:09:01;4.47;;;2.92;;
75234;SDS011;63817;51.228;-1.472;2023-03-01T07:11:27;5.20;;;2.80;;
75234;SDS011;63817;51.228;-1.472;2023-03-01T07:13:52;5.55;;;2.88;;
75234;SDS011;63817;51.228;-1.472;2023-03-01T07:16:17;4.85;;;2.58;;
75234;SDS011;63817;51.228;-1.472;2023-03-01T07:18:43;5.18;;;2.70;;
75234;SDS011;63817;51.228;-1.472;2023-03-01T07:21:09;5.07;;;3.17;;
75234;SDS011;63817;51.228;-1.472;2023-03-01T07:23:36;4.65;;;2.85;;
75234;SDS011;63817;51.228;-1.472;2023-03-01T07:26:02;7.78;;;3.75;;
75234;SDS011;63817;51.228;-1.472;2023-03-01T07:28:27;6.68;;;3.50;;
75234;SDS011;63817;51.228;-1.472;2023-03-01T07:30:53;6.80;;;2.83;;
75234;SDS011;63817;51.228;-1.472;2023-03-01T07:33:19;8.75;;;3.22;;
75234;SDS011;63817;51.228;-1.472;2023-03-01T07:35:44;5.65;;;3.17;;
75234;SDS011;63817;51.228;-1.472;2023-03-01T07:38:10;6.35;;;3.67;;
75234;SDS011;63817;51.228;-1.472;2023-03-01T07:40:35;5.95;;;3.47;;
75234;SDS011;63817;51.228;-1.472;2023-03-01T07:43:01;6.45;;;3.80;;
75234;SDS011;63817;51.228;-1.472;2023-03-01T07:45:27;7.85;;;3.80;;
75234;SDS011;63817;51.228;-1.472;2023-03-01T07:47:52;6.05;;;3.75;;
75234;SDS011;63817;51.228;-1.472;2023-03-01T07:50:18;7.55;;;4.20;;
75234;SDS011;63817;51.228;-1.472;2023-03-01T07:52:44;8.23;;;3.95;;
75234;SDS011;63817;51.228;-1.472;2023-03-01T07:55:11;5.63;;;3.72;;
75234;SDS011;63817;51.228;-1.472;2023-03-01T07:57:36;8.27;;;3.60;;
75234;SDS011;63817;51.228;-1.472;2023-03-01T08:00:01;9.63;;;3.75;;
75234;SDS011;63817;51.228;-1.472;2023-03-01T08:02:27;6.65;;;3.53;;
75234;SDS011;63817;51.228;-1.472;2023-03-01T08:04:53;5.88;;;3.13;;
75234;SDS011;63817;51.228;-1.472;2023-03-01T08:07:18;9.23;;;3.38;;
75234;SDS011;63817;51.228;-1.472;2023-03-01T08:09:43;4.95;;;3.55;;
75234;SDS011;63817;51.228;-1.472;2023-03-01T08:12:09;5.20;;;3.22;;
75234;SDS011;63817;51.228;-1.472;2023-03-01T08:14:34;13.65;;;3.28;;
75234;SDS011;63817;51.228;-1.472;2023-03-01T08:16:59;3.97;;;2.88;;
75234;SDS011;63817;51.228;-1.472;2023-03-01T08:19:25;12.07;;;3.67;;
75234;SDS011;63817;51.228;-1.472;2023-03-01T08:21:50;7.78;;;2.85;;
75234;SDS011;63817;51.228;-1.472;2023-03-01T08:24:16;4.20;;;2.92;;
75234;SDS011;63817;51.228;-1.472;2023-03-01T08:26:41;11.15;;;4.20;;
75234;SDS011;63817;51.228;-1.472;2023-03-01T08:29:07;4.88;;;3.00;;
75234;SDS011;63817;51.228;-1.472;2023-03-01T08:31:33;4.57;;;2.95;;
75234;SDS011;63817;51.228;-1.472;2023-03-01T08:34:01;5.60;;;3.42;;
75234;SDS011;63817;51.228;-1.472;2023-03-01T08:36:30;5.45;;;3.03;;
75234;SDS011;63817;51.228;-1.472;2023-03-01T08:38:57;7.43;;;3.00;;
75234;SDS011;63817;51.228;-1.472;2023-03-01T08:41:23;6.60;;;2.90;;
75234;SDS011;63817;51.228;-1.472;2023-03-01T08:43:49;9.18;;;3.50;;
75234;SDS011;63817;51.228;-1.472;2023-03-01T08:46:15;5.63;;;2.88;;
75234;SDS011;63817;51.228;-1.472;2023-03-01T08:48:40;5.03;;;2.65;;
75234;SDS011;63817;51.228;-1.472;2023-03-01T08:51:12;8.00;;;3.30;;
75234;SDS011;63817;51.228;-1.472;2023-03-01T08:53:39;6.78;;;3.25;;
75234;SDS011;63817;51.228;-1.472;2023-03-01T08:56:05;8.70;;;2.90;;
75234;SDS011;63817;51.228;-1.472;2023-03-01T08:58:30;5.47;;;2.80;;
75234;SDS011;63817;51.228;-1.472;2023-03-01T09:00:56;5.07;;;2.92;;
75234;SDS011;63817;51.228;-1.472;2023-03-01T09:03:22;4.18;;;2.60;;
75234;SDS011;63817;51.228;-1.472;2023-03-01T09:05:51;6.55;;;2.70;;
75234;SDS011;63817;51.228;-1.472;2023-03-01T09:08:17;4.65;;;2.80;;
75234;SDS011;63817;51.228;-1.472;2023-03-01T09:10:43;7.03;;;2.97;;
75234;SDS011;63817;51.228;-1.472;2023-03-01T09:13:08;6.20;;;2.75;;
75234;SDS011;63817;51.228;-1.472;2023-03-01T09:15:36;5.47;;;2.05;;
75234;SDS011;63817;51.228;-1.472;2023-03-01T09:18:02;5.18;;;1.83;;
75234;SDS011;63817;51.228;-1.472;2023-03-01T09:20:28;2.85;;;1.90;;
75234;SDS011;63817;51.228;-1.472;2023-03-01T09:22:53;2.47;;;1.80;;
75234;SDS011;63817;51.228;-1.472;2023-03-01T09:25:19;3.92;;;1.90;;
75234;SDS011;63817;51.228;-1.472;2023-03-01T09:27:44;4.45;;;1.45;;
75234;SDS011;63817;51.228;-1.472;2023-03-01T09:30:10;3.60;;;1.30;;
75234;SDS011;63817;51.228;-1.472;2023-03-01T09:32:35;19.35;;;1.65;;
75234;SDS011;63817;51.228;-1.472;2023-03-01T09:35:01;2.42;;;1.15;;
75234;SDS011;63817;51.228;-1.472;2023-03-01T09:37:28;4.05;;;1.30;;
75234;SDS011;63817;51.228;-1.472;2023-03-01T09:39:54;0.80;;;0.80;;
75234;SDS011;63817;51.228;-1.472;2023-03-01T09:42:19;1.77;;;0.73;;
75234;SDS011;63817;51.228;-1.472;2023-03-01T09:47:18;2.10;;;0.88;;
75234;SDS011;63817;51.228;-1.472;2023-03-01T09:49:47;0.80;;;0.80;;
75234;SDS011;63817;51.228;-1.472;2023-03-01T09:55:11;2.55;;;0.88;;
75234;SDS011;63817;51.228;-1.472;2023-03-01T09:58:23;2.20;;;0.98;;
75234;SDS011;63817;51.228;-1.472;2023-03-01T10:08:19;1.17;;;0.70;;
75234;SDS011;63817;51.228;-1.472;2023-03-01T10:10:52;4.18;;;1.20;;
75234;SDS011;63817;51.228;-1.472;2023-03-01T10:13:22;6.80;;;2.17;;
75234;SDS011;63817;51.228;-1.472;2023-03-01T10:15:56;4.20;;;1.75;;
75234;SDS011;63817;51.228;-1.472;2023-03-01T10:18:27;3.28;;;1.90;;
75234;SDS011;63817;51.228;-1.472;2023-03-01T10:20:59;4.00;;;1.60;;
75234;SDS011;63817;51.228;-1.472;2023-03-01T10:23:26;2.58;;;1.70;;
75234;SDS011;63817;51.228;-1.472;2023-03-01T10:31:33;3.10;;;1.90;;
75234;SDS011;63817;51.228;-1.472;2023-03-01T10:34:02;3.63;;;2.03;;
75234;SDS011;63817;51.228;-1.472;2023-03-01T10:36:30;2.20;;;1.88;;
75234;SDS011;63817;51.228;-1.472;2023-03-01T10:38:57;2.25;;;1.85;;
75234;SDS011;63817;51.228;-1.472;2023-03-01T10:41:24;4.32;;;2.50;;
75234;SDS011;63817;51.228;-1.472;2023-03-01T10:43:56;3.55;;;2.38;;
75234;SDS011;63817;51.228;-1.472;2023-03-01T10:46:24;4.18;;;2.40;;
75234;SDS011;63817;51.228;-1.472;2023-03-01T10:51:52;2.80;;;2.20;;
75234;SDS011;63817;51.228;-1.472;2023-03-01T10:54:31;3.63;;;2.25;;
75234;SDS011;63817;51.228;-1.472;2023-03-01T10:56:58;3.80;;;2.60;;
75234;SDS011;63817;51.228;-1.472;2023-03-01T10:59:26;3.60;;;2.10;;
75234;SDS011;63817;51.228;-1.472;2023-03-01T11:04:34;5.45;;;2.03;;
75234;SDS011;63817;51.228;-1.472;2023-03-01T11:07:00;5.22;;;2.13;;
75234;SDS011;63817;51.228;-1.472;2023-03-01T11:09:26;4.38;;;2.00;;
75234;SDS011;63817;51.228;-1.472;2023-03-01T11:12:02;3.85;;;2.25;;
75234;SDS011;63817;51.228;-1.472;2023-03-01T11:14:35;5.10;;;2.10;;
75234;SDS011;63817;51.228;-1.472;2023-03-01T11:17:05;2.45;;;2.00;;
75234;SDS011;63817;51.228;-1.472;2023-03-01T11:19:42;4.55;;;2.30;;
75234;SDS011;63817;51.228;-1.472;2023-03-01T11:24:46;3.90;;;2.58;;
75234;SDS011;63817;51.228;-1.472;2023-03-01T11:29:54;3.88;;;2.17;;
75234;SDS011;63817;51.228;-1.472;2023-03-01T11:34:56;3.90;;;2.92;;
75234;SDS011;63817;51.228;-1.472;2023-03-01T11:40:10;3.65;;;2.10;;
75234;SDS011;63817;51.228;-1.472;2023-03-01T11:42:52;4.05;;;2.00;;
75234;SDS011;63817;51.228;-1.472;2023-03-01T11:45:22;3.13;;;1.88;;
75234;SDS011;63817;51.228;-1.472;2023-03-01T11:48:10;4.13;;;2.50;;
75234;SDS011;63817;51.228;-1.472;2023-03-01T11:50:41;4.00;;;1.92;;
75234;SDS011;63817;51.228;-1.472;2023-03-01T11:53:16;10.13;;;2.45;;
75234;SDS011;63817;51.228;-1.472;2023-03-01T11:56:05;5.13;;;1.95;;
75234;SDS011;63817;51.228;-1.472;2023-03-01T11:59:05;2.90;;;2.00;;
75234;SDS011;63817;51.228;-1.472;2023-03-01T12:01:38;4.85;;;2.58;;
75234;SDS011;63817;51.228;-1.472;2023-03-01T12:06:59;4.63;;;2.60;;
75234;SDS011;63817;51.228;-1.472;2023-03-01T12:23:02;4.65;;;2.45;;
75234;SDS011;63817;51.228;-1.472;2023-03-01T12:25:44;7.97;;;3.60;;
75234;SDS011;63817;51.228;-1.472;2023-03-01T12:33:47;6.88;;;3.50;;
75234;SDS011;63817;51.228;-1.472;2023-03-01T12:48:15;8.20;;;3.08;;
75234;SDS011;63817;51.228;-1.472;2023-03-01T12:50:42;5.32;;;2.33;;
75234;SDS011;63817;51.228;-1.472;2023-03-01T12:53:17;5.30;;;2.85;;
75234;SDS011;63817;51.228;-1.472;2023-03-01T12:55:45;8.88;;;2.88;;
75234;SDS011;63817;51.228;-1.472;2023-03-01T13:07:11;7.57;;;2.38;;
75234;SDS011;63817;51.228;-1.472;2023-03-01T13:17:55;5.75;;;2.00;;
75234;SDS011;63817;51.228;-1.472;2023-03-01T13:20:26;5.35;;;2.10;;
75234;SDS011;63817;51.228;-1.472;2023-03-01T13:25:29;5.95;;;2.85;;
75234;SDS011;63817;51.228;-1.472;2023-03-01T13:30:58;6.32;;;2.47;;
75234;SDS011;63817;51.228;-1.472;2023-03-01T13:35:52;5.00;;;3.22;;
75234;SDS011;63817;51.228;-1.472;2023-03-01T13:41:13;4.05;;;2.10;;
75234;SDS011;63817;51.228;-1.472;2023-03-01T13:43:46;4.10;;;2.65;;
75234;SDS011;63817;51.228;-1.472;2023-03-01T13:46:16;4.85;;;3.03;;
75234;SDS011;63817;51.228;-1.472;2023-03-01T13:48:44;4.70;;;2.67;;
75234;SDS011;63817;51.228;-1.472;2023-03-01T13:51:11;4.22;;;2.55;;
75234;SDS011;63817;51.228;-1.472;2023-03-01T13:53:41;3.75;;;2.22;;
75234;SDS011;63817;51.228;-1.472;2023-03-01T13:56:10;4.00;;;2.20;;
75234;SDS011;63817;51.228;-1.472;2023-03-01T13:58:48;4.93;;;2.28;;
75234;SDS011;63817;51.228;-1.472;2023-03-01T14:03:48;3.45;;;2.40;;
75234;SDS011;63817;51.228;-1.472;2023-03-01T14:06:15;3.67;;;2.75;;
75234;SDS011;63817;51.228;-1.472;2023-03-01T14:08:45;5.80;;;2.78;;
75234;SDS011;63817;51.228;-1.472;2023-03-01T14:19:41;3.85;;;1.88;;
75234;SDS011;63817;51.228;-1.472;2023-03-01T14:24:51;4.88;;;2.30;;
75234;SDS011;63817;51.228;-1.472;2023-03-01T14:27:20;5.32;;;1.98;;
75234;SDS011;63817;51.228;-1.472;2023-03-01T14:32:47;4.75;;;1.90;;
75234;SDS011;63817;51.228;-1.472;2023-03-01T14:37:53;3.22;;;1.88;;
75234;SDS011;63817;51.228;-1.472;2023-03-01T14:40:22;3.15;;;2.03;;
75234;SDS011;63817;51.228;-1.472;2023-03-01T14:42:50;4.40;;;1.83;;
75234;SDS011;63817;51.228;-1.472;2023-03-01T14:45:15;4.22;;;2.35;;
75234;SDS011;63817;51.228;-1.472;2023-03-01T14:47:43;3.95;;;2.08;;
75234;SDS011;63817;51.228;-1.472;2023-03-01T14:52:50;6.07;;;2.13;;
75234;SDS011;63817;51.228;-1.472;2023-03-01T14:55:18;5.22;;;2.97;;
75234;SDS011;63817;51.228;-1.472;2023-03-01T14:58:08;2.72;;;1.70;;
75234;SDS011;63817;51.228;-1.472;2023-03-01T15:00:37;2.72;;;1.77;;
75234;SDS011;63817;51.228;-1.472;2023-03-01T15:03:14;3.50;;;1.70;;
75234;SDS011;63817;51.228;-1.472;2023-03-01T15:05:49;2.92;;;1.95;;
75234;SDS011;63817;51.228;-1.472;2023-03-01T15:08:19;2.83;;;2.00;;
75234;SDS011;63817;51.228;-1.472;2023-03-01T15:13:29;4.97;;;1.95;;
75234;SDS011;63817;51.228;-1.472;2023-03-01T15:16:09;3.47;;;1.98;;
75234;SDS011;63817;51.228;-1.472;2023-03-01T15:18:36;4.65;;;1.83;;
75234;SDS011;63817;51.228;-1.472;2023-03-01T15:21:09;3.58;;;2.08;;
75234;SDS011;63817;51.228;-1.472;2023-03-01T15:23:40;3.25;;;1.90;;
75234;SDS011;63817;51.228;-1.472;2023-03-01T15:26:06;5.10;;;2.28;;
75234;SDS011;63817;51.228;-1.472;2023-03-01T15:28:37;4.32;;;2.08;;
75234;SDS011;63817;51.228;-1.472;2023-03-01T15:31:19;4.13;;;1.73;;
75234;SDS011;63817;51.228;-1.472;2023-03-01T15:33:47;2.63;;;1.73;;
75234;SDS011;63817;51.228;-1.472;2023-03-01T15:39:01;2.83;;;2.50;;
75234;SDS011;63817;51.228;-1.472;2023-03-01T15:41:29;1.95;;;1.02;;
75234;SDS011;63817;51.228;-1.472;2023-03-01T15:43:56;1.67;;;1.10;;
75234;SDS011;63817;51.228;-1.472;2023-03-01T15:46:23;3.50;;;1.10;;
75234;SDS011;63817;51.228;-1.472;2023-03-01T15:48:55;1.25;;;0.82;;
75234;SDS011;63817;51.228;-1.472;2023-03-01T15:51:26;1.25;;;0.80;;
75234;SDS011;63817;51.228;-1.472;2023-03-01T15:53:58;1.05;;;0.95;;
75234;SDS011;63817;51.228;-1.472;2023-03-01T15:56:24;2.88;;;1.00;;
75234;SDS011;63817;51.228;-1.472;2023-03-01T15:58:50;2.03;;;1.02;;
75234;SDS011;63817;51.228;-1.472;2023-03-01T16:01:16;3.40;;;1.27;;
75234;SDS011;63817;51.228;-1.472;2023-03-01T16:03:42;2.50;;;1.30;;
75234;SDS011;63817;51.228;-1.472;2023-03-01T16:06:11;2.53;;;1.33;;
75234;SDS011;63817;51.228;-1.472;2023-03-01T16:08:37;1.95;;;1.25;;
75234;SDS011;63817;51.228;-1.472;2023-03-01T16:11:04;2.05;;;1.27;;
75234;SDS011;63817;51.228;-1.472;2023-03-01T16:13:31;3.50;;;1.60;;
75234;SDS011;63817;51.228;-1.472;2023-03-01T16:15:57;1.77;;;0.93;;
75234;SDS011;63817;51.228;-1.472;2023-03-01T16:18:23;0.82;;;0.82;;
75234;SDS011;63817;51.228;-1.472;2023-03-01T16:20:48;2.03;;;1.10;;
75234;SDS011;63817;51.228;-1.472;2023-03-01T16:23:14;2.47;;;0.90;;
75234;SDS011;63817;51.228;-1.472;2023-03-01T16:25:40;2.00;;;1.30;;
75234;SDS011;63817;51.228;-1.472;2023-03-01T16:28:06;1.88;;;1.40;;
75234;SDS011;63817;51.228;-1.472;2023-03-01T16:30:35;4.28;;;2.22;;
75234;SDS011;63817;51.228;-1.472;2023-03-01T16:33:01;3.10;;;1.60;;
75234;SDS011;63817;51.228;-1.472;2023-03-01T16:35:45;3.33;;;1.48;;
75234;SDS011;63817;51.228;-1.472;2023-03-01T16:38:10;1.65;;;1.10;;
75234;SDS011;63817;51.228;-1.472;2023-03-01T16:40:36;2.88;;;1.42;;
75234;SDS011;63817;51.228;-1.472;2023-03-01T16:43:01;2.72;;;1.20;;
75234;SDS011;63817;51.228;-1.472;2023-03-01T16:45:28;2.50;;;1.10;;
75234;SDS011;63817;51.228;-1.472;2023-03-01T16:47:59;3.22;;;1.17;;
75234;SDS011;63817;51.228;-1.472;2023-03-01T16:50:24;1.70;;;1.10;;
75234;SDS011;63817;51.228;-1.472;2023-03-01T16:52:50;2.38;;;1.10;;